sensor_id;sensor_type;location;lat;lon;timestamp;temperature;humidity
18160;DHT22;9205;52.032;4.314;2023-09-18T00:00:34;18.70;99.90
18160;DHT22;9205;52.032;4.314;2023-09-18T00:03:02;19.10;99.90
18160;DHT22;9205;52.032;4.314;2023-09-18T00:05:30;19.00;99.90
18160;DHT22;9205;52.032;4.314;2023-09-18T00:07:59;19.10;99.90
18160;DHT22;9205;52.032;4.314;2023-09-18T00:10:28;19.00;99.90
18160;DHT22;9205;52.032;4.314;2023-09-18T00:12:56;18.80;99.90
18160;DHT22;9205;52.032;4.314;2023-09-18T00:15:24;19.20;99.90
18160;DHT22;9205;52.032;4.314;2023-09-18T00:17:52;19.10;99.90
18160;DHT22;9205;52.032;4.314;2023-09-18T00:20:19;19.00;99.90
18160;DHT22;9205;52.032;4.314;2023-09-18T00:22:46;18.80;99.90
18160;DHT22;9205;52.032;4.314;2023-09-18T00:25:15;18.80;99.90
18160;DHT22;9205;52.032;4.314;2023-09-18T00:27:42;19.00;99.90
18160;DHT22;9205;52.032;4.314;2023-09-18T00:30:10;19.00;99.90
18160;DHT22;9205;52.032;4.314;2023-09-18T00:32:38;18.80;99.90
18160;DHT22;9205;52.032;4.314;2023-09-18T00:35:05;18.80;99.90
18160;DHT22;9205;52.032;4.314;2023-09-18T00:37:33;19.30;99.90
18160;DHT22;9205;52.032;4.314;2023-09-18T00:40:02;18.90;99.90
18160;DHT22;9205;52.032;4.314;2023-09-18T00:42:32;19.10;99.90
18160;DHT22;9205;52.032;4.314;2023-09-18T00:44:59;19.20;99.90
18160;DHT22;9205;52.032;4.314;2023-09-18T00:47:26;18.90;99.90
18160;DHT22;9205;52.032;4.314;2023-09-18T00:49:55;18.90;99.90
18160;DHT22;9205;52.032;4.314;2023-09-18T00:52:23;18.90;99.90
18160;DHT22;9205;52.032;4.314;2023-09-18T00:54:52;19.30;99.90
18160;DHT22;9205;52.032;4.314;2023-09-18T00:57:21;19.10;99.90
18160;DHT22;9205;52.032;4.314;2023-09-18T00:59:50;19.30;99.90
18160;DHT22;9205;52.032;4.314;2023-09-18T01:02:18;18.90;99.90
18160;DHT22;9205;52.032;4.314;2023-09-18T01:04:47;19.20;99.90
18160;DHT22;9205;52.032;4.314;2023-09-18T01:07:16;19.00;99.90
18160;DHT22;9205;52.032;4.314;2023-09-18T01:09:45;19.30;99.90
18160;DHT22;9205;52.032;4.314;2023-09-18T01:12:17;19.20;99.90
18160;DHT22;9205;52.032;4.314;2023-09-18T01:14:57;19.30;99.90
18160;DHT22;9205;52.032;4.314;2023-09-18T01:17:35;18.80;99.90
18160;DHT22;9205;52.032;4.314;2023-09-18T01:20:05;18.90;99.90
18160;DHT22;9205;52.032;4.314;2023-09-18T01:22:37;19.10;99.90
18160;DHT22;9205;52.032;4.314;2023-09-18T01:25:05;19.20;99.90
18160;DHT22;9205;52.032;4.314;2023-09-18T01:27:33;19.20;99.90
18160;DHT22;9205;52.032;4.314;2023-09-18T01:30:01;19.00;99.90
18160;DHT22;9205;52.032;4.314;2023-09-18T01:32:31;19.00;99.90
18160;DHT22;9205;52.032;4.314;2023-09-18T01:35:01;19.30;99.90
18160;DHT22;9205;52.032;4.314;2023-09-18T01:37:31;18.90;99.90
18160;DHT22;9205;52.032;4.314;2023-09-18T01:40:04;18.90;99.90
18160;DHT22;9205;52.032;4.314;2023-09-18T01:42:34;19.30;99.90
18160;DHT22;9205;52.032;4.314;2023-09-18T01:45:02;19.20;99.90
18160;DHT22;9205;52.032;4.314;2023-09-18T01:47:31;18.80;99.90
18160;DHT22;9205;52.032;4.314;2023-09-18T01:49:58;19.10;99.90
18160;DHT22;9205;52.032;4.314;2023-09-18T01:52:31;19.30;99.90
18160;DHT22;9205;52.032;4.314;2023-09-18T01:54:58;18.90;99.90
18160;DHT22;9205;52.032;4.314;2023-09-18T01:57:27;19.30;99.90
18160;DHT22;9205;52.032;4.314;2023-09-18T01:59:55;19.10;99.90
18160;DHT22;9205;52.032;4.314;2023-09-18T02:02:23;19.40;99.90
18160;DHT22;9205;52.032;4.314;2023-09-18T02:04:50;19.10;99.90
18160;DHT22;9205;52.032;4.314;2023-09-18T02:07:17;19.10;99.90
18160;DHT22;9205;52.032;4.314;2023-09-18T02:09:44;19.20;99.90
18160;DHT22;9205;52.032;4.314;2023-09-18T02:12:11;19.10;99.90
18160;DHT22;9205;52.032;4.314;2023-09-18T02:14:44;19.10;99.90
18160;DHT22;9205;52.032;4.314;2023-09-18T02:17:12;19.30;99.90
18160;DHT22;9205;52.032;4.314;2023-09-18T02:19:40;19.20;99.90
18160;DHT22;9205;52.032;4.314;2023-09-18T02:22:08;19.20;99.90
18160;DHT22;9205;52.032;4.314;2023-09-18T02:24:36;19.40;99.90
18160;DHT22;9205;52.032;4.314;2023-09-18T02:27:04;19.30;99.90
18160;DHT22;9205;52.032;4.314;2023-09-18T02:29:32;19.00;99.90
18160;DHT22;9205;52.032;4.314;2023-09-18T02:32:01;19.20;99.90
18160;DHT22;9205;52.032;4.314;2023-09-18T02:34:28;19.20;99.90
18160;DHT22;9205;52.032;4.314;2023-09-18T02:36:57;19.40;99.90
18160;DHT22;9205;52.032;4.314;2023-09-18T02:39:24;19.30;99.90
18160;DHT22;9205;52.032;4.314;2023-09-18T02:41:52;19.50;99.90
18160;DHT22;9205;52.032;4.314;2023-09-18T02:44:19;19.10;99.90
18160;DHT22;9205;52.032;4.314;2023-09-18T02:46:46;19.60;99.90
18160;DHT22;9205;52.032;4.314;2023-09-18T02:49:14;19.20;99.90
18160;DHT22;9205;52.032;4.314;2023-09-18T02:51:42;19.60;99.90
18160;DHT22;9205;52.032;4.314;2023-09-18T02:54:09;19.40;99.90
18160;DHT22;9205;52.032;4.314;2023-09-18T02:56:36;19.50;99.90
18160;DHT22;9205;52.032;4.314;2023-09-18T02:59:04;19.50;99.90
18160;DHT22;9205;52.032;4.314;2023-09-18T03:01:31;19.10;99.90
18160;DHT22;9205;52.032;4.314;2023-09-18T03:03:58;19.20;99.90
18160;DHT22;9205;52.032;4.314;2023-09-18T03:06:28;19.40;99.90
18160;DHT22;9205;52.032;4.314;2023-09-18T03:08:55;19.20;99.90
18160;DHT22;9205;52.032;4.314;2023-09-18T03:11:23;19.50;99.90
18160;DHT22;9205;52.032;4.314;2023-09-18T03:13:53;19.40;99.90
18160;DHT22;9205;52.032;4.314;2023-09-18T03:16:21;19.30;99.90
18160;DHT22;9205;52.032;4.314;2023-09-18T03:18:49;19.40;99.90
18160;DHT22;9205;52.032;4.314;2023-09-18T03:21:16;19.40;99.90
18160;DHT22;9205;52.032;4.314;2023-09-18T03:23:44;19.50;99.90
18160;DHT22;9205;52.032;4.314;2023-09-18T03:26:11;19.30;99.90
18160;DHT22;9205;52.032;4.314;2023-09-18T03:28:39;19.60;99.90
18160;DHT22;9205;52.032;4.314;2023-09-18T03:31:06;19.40;99.90
18160;DHT22;9205;52.032;4.314;2023-09-18T03:33:33;19.30;99.90
18160;DHT22;9205;52.032;4.314;2023-09-18T03:36:01;19.20;99.90
18160;DHT22;9205;52.032;4.314;2023-09-18T03:38:32;19.40;99.90
18160;DHT22;9205;52.032;4.314;2023-09-18T03:41:03;19.20;99.90
18160;DHT22;9205;52.032;4.314;2023-09-18T03:43:30;19.30;99.90
18160;DHT22;9205;52.032;4.314;2023-09-18T03:46:03;19.30;99.90
18160;DHT22;9205;52.032;4.314;2023-09-18T03:48:34;19.30;99.90
18160;DHT22;9205;52.032;4.314;2023-09-18T03:51:03;19.40;99.90
18160;DHT22;9205;52.032;4.314;2023-09-18T03:53:32;19.30;99.90
18160;DHT22;9205;52.032;4.314;2023-09-18T03:56:00;19.40;99.90
18160;DHT22;9205;52.032;4.314;2023-09-18T03:58:28;19.40;99.90
18160;DHT22;9205;52.032;4.314;2023-09-18T04:00:56;19.80;99.90
18160;DHT22;9205;52.032;4.314;2023-09-18T04:03:23;19.40;99.90
18160;DHT22;9205;52.032;4.314;2023-09-18T04:05:50;19.40;99.90
18160;DHT22;9205;52.032;4.314;2023-09-18T04:08:17;19.50;99.90
18160;DHT22;9205;52.032;4.314;2023-09-18T04:10:45;19.70;99.90
18160;DHT22;9205;52.032;4.314;2023-09-18T04:13:12;19.20;99.90
18160;DHT22;9205;52.032;4.314;2023-09-18T04:15:41;19.00;99.90
18160;DHT22;9205;52.032;4.314;2023-09-18T04:18:08;19.30;99.90
18160;DHT22;9205;52.032;4.314;2023-09-18T04:20:35;19.70;99.90
18160;DHT22;9205;52.032;4.314;2023-09-18T04:23:20;19.30;99.90
18160;DHT22;9205;52.032;4.314;2023-09-18T04:25:50;19.30;99.90
18160;DHT22;9205;52.032;4.314;2023-09-18T04:28:22;19.50;99.90
18160;DHT22;9205;52.032;4.314;2023-09-18T04:30:51;19.10;99.90
18160;DHT22;9205;52.032;4.314;2023-09-18T04:33:19;19.20;99.90
18160;DHT22;9205;52.032;4.314;2023-09-18T04:35:47;19.40;99.90
18160;DHT22;9205;52.032;4.314;2023-09-18T04:38:15;19.30;99.90
18160;DHT22;9205;52.032;4.314;2023-09-18T04:40:43;19.10;99.90
18160;DHT22;9205;52.032;4.314;2023-09-18T04:43:11;19.80;99.90
18160;DHT22;9205;52.032;4.314;2023-09-18T04:45:39;19.50;99.90
18160;DHT22;9205;52.032;4.314;2023-09-18T04:48:08;19.60;99.90
18160;DHT22;9205;52.032;4.314;2023-09-18T04:50:36;19.80;99.90
18160;DHT22;9205;52.032;4.314;2023-09-18T04:53:03;19.40;99.90
18160;DHT22;9205;52.032;4.314;2023-09-18T04:55:30;19.20;99.90
18160;DHT22;9205;52.032;4.314;2023-09-18T04:57:58;19.50;99.90
18160;DHT22;9205;52.032;4.314;2023-09-18T05:00:26;19.20;99.90
18160;DHT22;9205;52.032;4.314;2023-09-18T05:02:55;19.20;99.90
18160;DHT22;9205;52.032;4.314;2023-09-18T05:05:24;19.20;99.90
18160;DHT22;9205;52.032;4.314;2023-09-18T05:07:51;19.90;99.90
18160;DHT22;9205;52.032;4.314;2023-09-18T05:10:18;19.40;99.90
18160;DHT22;9205;52.032;4.314;2023-09-18T05:12:48;19.90;99.90
18160;DHT22;9205;52.032;4.314;2023-09-18T05:15:16;20.00;99.90
18160;DHT22;9205;52.032;4.314;2023-09-18T05:17:44;19.80;99.90
18160;DHT22;9205;52.032;4.314;2023-09-18T05:20:17;19.50;99.90
18160;DHT22;9205;52.032;4.314;2023-09-18T05:22:46;19.60;99.90
18160;DHT22;9205;52.032;4.314;2023-09-18T05:25:14;19.20;99.90
18160;DHT22;9205;52.032;4.314;2023-09-18T05:27:41;19.60;99.90
18160;DHT22;9205;52.032;4.314;2023-09-18T05:30:12;19.70;99.90
18160;DHT22;9205;52.032;4.314;2023-09-18T05:32:41;19.20;99.90
18160;DHT22;9205;52.032;4.314;2023-09-18T05:35:09;19.50;99.90
18160;DHT22;9205;52.032;4.314;2023-09-18T05:37:38;19.80;99.90
18160;DHT22;9205;52.032;4.314;2023-09-18T05:40:09;19.30;99.90
18160;DHT22;9205;52.032;4.314;2023-09-18T05:42:38;19.90;99.90
18160;DHT22;9205;52.032;4.314;2023-09-18T05:45:09;19.10;99.90
18160;DHT22;9205;52.032;4.314;2023-09-18T05:47:37;19.40;99.90
18160;DHT22;9205;52.032;4.314;2023-09-18T05:50:05;19.50;99.90
18160;DHT22;9205;52.032;4.314;2023-09-18T05:52:33;19.40;99.90
18160;DHT22;9205;52.032;4.314;2023-09-18T05:55:01;19.30;99.90
18160;DHT22;9205;52.032;4.314;2023-09-18T05:57:31;19.70;99.90
18160;DHT22;9205;52.032;4.314;2023-09-18T05:59:58;19.00;99.90
18160;DHT22;9205;52.032;4.314;2023-09-18T06:02:25;19.00;99.90
18160;DHT22;9205;52.032;4.314;2023-09-18T06:04:55;19.40;99.90
18160;DHT22;9205;52.032;4.314;2023-09-18T06:07:24;19.30;99.90
18160;DHT22;9205;52.032;4.314;2023-09-18T06:09:51;19.40;99.90
18160;DHT22;9205;52.032;4.314;2023-09-18T06:12:18;19.20;99.90
18160;DHT22;9205;52.032;4.314;2023-09-18T06:14:49;19.70;99.90
18160;DHT22;9205;52.032;4.314;2023-09-18T06:17:16;19.40;99.90
18160;DHT22;9205;52.032;4.314;2023-09-18T06:19:45;19.70;99.90
18160;DHT22;9205;52.032;4.314;2023-09-18T06:22:12;19.40;99.90
18160;DHT22;9205;52.032;4.314;2023-09-18T06:24:40;19.00;99.90
18160;DHT22;9205;52.032;4.314;2023-09-18T06:27:07;19.20;99.90
18160;DHT22;9205;52.032;4.314;2023-09-18T06:29:35;19.20;99.90
18160;DHT22;9205;52.032;4.314;2023-09-18T06:32:05;19.60;99.90
18160;DHT22;9205;52.032;4.314;2023-09-18T06:34:33;19.00;99.90
18160;DHT22;9205;52.032;4.314;2023-09-18T06:37:00;19.00;99.90
18160;DHT22;9205;52.032;4.314;2023-09-18T06:39:29;19.40;99.90
18160;DHT22;9205;52.032;4.314;2023-09-18T06:41:56;19.00;99.90
18160;DHT22;9205;52.032;4.314;2023-09-18T06:44:23;18.90;99.90
18160;DHT22;9205;52.032;4.314;2023-09-18T06:46:51;19.40;99.90
18160;DHT22;9205;52.032;4.314;2023-09-18T06:49:20;19.10;99.90
18160;DHT22;9205;52.032;4.314;2023-09-18T06:51:47;19.40;99.90
18160;DHT22;9205;52.032;4.314;2023-09-18T06:54:14;19.50;99.90
18160;DHT22;9205;52.032;4.314;2023-09-18T06:56:42;19.10;99.90
18160;DHT22;9205;52.032;4.314;2023-09-18T06:59:10;19.00;99.90
18160;DHT22;9205;52.032;4.314;2023-09-18T07:01:37;19.20;99.90
18160;DHT22;9205;52.032;4.314;2023-09-18T07:04:05;19.00;99.90
18160;DHT22;9205;52.032;4.314;2023-09-18T07:06:34;19.30;99.90
18160;DHT22;9205;52.032;4.314;2023-09-18T07:09:02;18.60;99.90
18160;DHT22;9205;52.032;4.314;2023-09-18T07:11:32;18.60;99.90
18160;DHT22;9205;52.032;4.314;2023-09-18T07:14:00;18.70;99.90
18160;DHT22;9205;52.032;4.314;2023-09-18T07:16:32;19.10;99.90
18160;DHT22;9205;52.032;4.314;2023-09-18T07:18:59;18.80;99.90
18160;DHT22;9205;52.032;4.314;2023-09-18T07:21:26;18.60;99.90
18160;DHT22;9205;52.032;4.314;2023-09-18T07:23:56;18.90;99.90
18160;DHT22;9205;52.032;4.314;2023-09-18T07:26:23;19.00;99.90
18160;DHT22;9205;52.032;4.314;2023-09-18T07:28:50;18.90;99.90
18160;DHT22;9205;52.032;4.314;2023-09-18T07:31:17;19.20;99.90
18160;DHT22;9205;52.032;4.314;2023-09-18T07:33:45;18.50;99.90
18160;DHT22;9205;52.032;4.314;2023-09-18T07:36:12;19.10;99.90
18160;DHT22;9205;52.032;4.314;2023-09-18T07:38:41;19.20;99.90
18160;DHT22;9205;52.032;4.314;2023-09-18T07:41:10;19.00;99.90
18160;DHT22;9205;52.032;4.314;2023-09-18T07:43:38;18.80;99.90
18160;DHT22;9205;52.032;4.314;2023-09-18T07:46:07;19.20;99.90
18160;DHT22;9205;52.032;4.314;2023-09-18T07:48:34;19.00;99.90
18160;DHT22;9205;52.032;4.314;2023-09-18T07:51:03;19.00;99.90
18160;DHT22;9205;52.032;4.314;2023-09-18T07:53:30;19.20;99.90
18160;DHT22;9205;52.032;4.314;2023-09-18T07:55:58;19.10;99.90
18160;DHT22;9205;52.032;4.314;2023-09-18T07:58:31;19.20;99.90
18160;DHT22;9205;52.032;4.314;2023-09-18T08:00:59;18.70;99.90
18160;DHT22;9205;52.032;4.314;2023-09-18T08:03:31;19.10;99.90
18160;DHT22;9205;52.032;4.314;2023-09-18T08:05:59;18.70;99.90
18160;DHT22;9205;52.032;4.314;2023-09-18T08:08:26;18.70;99.90
18160;DHT22;9205;52.032;4.314;2023-09-18T08:10:56;18.80;99.90
18160;DHT22;9205;52.032;4.314;2023-09-18T08:13:24;19.20;99.90
18160;DHT22;9205;52.032;4.314;2023-09-18T08:15:53;19.30;99.90
18160;DHT22;9205;52.032;4.314;2023-09-18T08:18:20;18.90;99.90
18160;DHT22;9205;52.032;4.314;2023-09-18T08:20:47;18.90;99.90
18160;DHT22;9205;52.032;4.314;2023-09-18T08:23:14;19.30;99.90
18160;DHT22;9205;52.032;4.314;2023-09-18T08:25:42;19.00;99.90
18160;DHT22;9205;52.032;4.314;2023-09-18T08:28:09;19.20;99.90
18160;DHT22;9205;52.032;4.314;2023-09-18T08:30:36;19.50;99.90
18160;DHT22;9205;52.032;4.314;2023-09-18T08:33:07;19.50;99.90
18160;DHT22;9205;52.032;4.314;2023-09-18T08:35:34;19.40;99.90
18160;DHT22;9205;52.032;4.314;2023-09-18T08:38:02;19.00;99.90
18160;DHT22;9205;52.032;4.314;2023-09-18T08:40:29;19.40;99.90
18160;DHT22;9205;52.032;4.314;2023-09-18T08:42:58;19.40;99.90
18160;DHT22;9205;52.032;4.314;2023-09-18T08:45:31;19.40;99.90
18160;DHT22;9205;52.032;4.314;2023-09-18T08:48:07;19.50;99.90
18160;DHT22;9205;52.032;4.314;2023-09-18T08:50:36;19.30;99.90
18160;DHT22;9205;52.032;4.314;2023-09-18T08:53:05;19.50;99.90
18160;DHT22;9205;52.032;4.314;2023-09-18T08:55:35;19.30;99.90
18160;DHT22;9205;52.032;4.314;2023-09-18T08:58:03;19.20;99.90
18160;DHT22;9205;52.032;4.314;2023-09-18T09:00:30;19.30;99.90
18160;DHT22;9205;52.032;4.314;2023-09-18T09:02:57;19.40;99.90
18160;DHT22;9205;52.032;4.314;2023-09-18T09:05:26;19.40;99.90
18160;DHT22;9205;52.032;4.314;2023-09-18T09:07:54;19.50;99.90
18160;DHT22;9205;52.032;4.314;2023-09-18T09:10:22;19.60;99.90
18160;DHT22;9205;52.032;4.314;2023-09-18T09:12:55;19.60;99.90
18160;DHT22;9205;52.032;4.314;2023-09-18T09:15:25;19.40;99.90
18160;DHT22;9205;52.032;4.314;2023-09-18T09:18:03;19.60;99.90
18160;DHT22;9205;52.032;4.314;2023-09-18T09:20:33;19.40;99.90
18160;DHT22;9205;52.032;4.314;2023-09-18T09:23:03;19.40;99.90
18160;DHT22;9205;52.032;4.314;2023-09-18T09:25:33;19.60;99.90
18160;DHT22;9205;52.032;4.314;2023-09-18T09:28:02;19.30;99.90
18160;DHT22;9205;52.032;4.314;2023-09-18T09:30:32;19.40;99.90
18160;DHT22;9205;52.032;4.314;2023-09-18T09:33:03;19.60;99.90
18160;DHT22;9205;52.032;4.314;2023-09-18T09:35:34;19.50;99.90
18160;DHT22;9205;52.032;4.314;2023-09-18T09:38:08;19.40;99.90
18160;DHT22;9205;52.032;4.314;2023-09-18T09:40:39;19.70;99.90
18160;DHT22;9205;52.032;4.314;2023-09-18T09:43:08;19.70;99.90
18160;DHT22;9205;52.032;4.314;2023-09-18T09:45:40;19.50;99.90
18160;DHT22;9205;52.032;4.314;2023-09-18T09:48:08;19.60;99.90
18160;DHT22;9205;52.032;4.314;2023-09-18T09:50:44;19.60;99.90
18160;DHT22;9205;52.032;4.314;2023-09-18T09:55:43;19.70;99.90
18160;DHT22;9205;52.032;4.314;2023-09-18T09:58:11;19.90;99.90
18160;DHT22;9205;52.032;4.314;2023-09-18T10:00:43;19.80;99.90
18160;DHT22;9205;52.032;4.314;2023-09-18T10:03:15;19.90;99.90
18160;DHT22;9205;52.032;4.314;2023-09-18T10:05:47;20.00;99.90
18160;DHT22;9205;52.032;4.314;2023-09-18T10:08:21;20.10;99.90
18160;DHT22;9205;52.032;4.314;2023-09-18T10:10:53;20.10;99.90
18160;DHT22;9205;52.032;4.314;2023-09-18T10:13:28;20.10;99.90
18160;DHT22;9205;52.032;4.314;2023-09-18T10:16:00;20.10;99.90
18160;DHT22;9205;52.032;4.314;2023-09-18T10:18:36;20.10;99.90
18160;DHT22;9205;52.032;4.314;2023-09-18T10:21:22;20.10;99.90
18160;DHT22;9205;52.032;4.314;2023-09-18T10:24:02;20.20;99.90
18160;DHT22;9205;52.032;4.314;2023-09-18T10:26:37;20.20;99.90
18160;DHT22;9205;52.032;4.314;2023-09-18T10:29:09;20.20;99.90
18160;DHT22;9205;52.032;4.314;2023-09-18T10:31:39;20.20;99.90
18160;DHT22;9205;52.032;4.314;2023-09-18T10:34:08;20.40;99.90
18160;DHT22;9205;52.032;4.314;2023-09-18T10:36:37;20.30;68.70
18160;DHT22;9205;52.032;4.314;2023-09-18T10:39:09;20.30;11.60
18160;DHT22;9205;52.032;4.314;2023-09-18T10:41:39;20.30;1.00
18160;DHT22;9205;52.032;4.314;2023-09-18T10:44:09;20.50;1.00
18160;DHT22;9205;52.032;4.314;2023-09-18T10:46:37;20.50;1.00
18160;DHT22;9205;52.032;4.314;2023-09-18T10:49:05;20.70;1.00
18160;DHT22;9205;52.032;4.314;2023-09-18T10:51:32;20.60;1.00
18160;DHT22;9205;52.032;4.314;2023-09-18T10:54:01;20.70;1.00
18160;DHT22;9205;52.032;4.314;2023-09-18T10:56:29;20.60;1.00
18160;DHT22;9205;52.032;4.314;2023-09-18T10:58:59;20.60;1.00
18160;DHT22;9205;52.032;4.314;2023-09-18T11:01:28;20.50;1.00
18160;DHT22;9205;52.032;4.314;2023-09-18T11:03:58;20.60;1.00
18160;DHT22;9205;52.032;4.314;2023-09-18T11:06:27;20.80;1.00
18160;DHT22;9205;52.032;4.314;2023-09-18T11:09:01;20.80;1.00
18160;DHT22;9205;52.032;4.314;2023-09-18T11:11:31;20.80;1.00
18160;DHT22;9205;52.032;4.314;2023-09-18T11:14:01;20.70;1.00
18160;DHT22;9205;52.032;4.314;2023-09-18T11:16:36;20.80;1.00
18160;DHT22;9205;52.032;4.314;2023-09-18T11:19:10;20.80;1.00
18160;DHT22;9205;52.032;4.314;2023-09-18T11:21:39;20.90;1.00
18160;DHT22;9205;52.032;4.314;2023-09-18T11:24:14;21.00;1.00
18160;DHT22;9205;52.032;4.314;2023-09-18T11:26:44;20.90;1.00
18160;DHT22;9205;52.032;4.314;2023-09-18T11:29:15;21.00;1.00
18160;DHT22;9205;52.032;4.314;2023-09-18T11:31:46;21.10;1.00
18160;DHT22;9205;52.032;4.314;2023-09-18T11:34:19;21.10;1.00
18160;DHT22;9205;52.032;4.314;2023-09-18T11:36:48;21.20;1.00
18160;DHT22;9205;52.032;4.314;2023-09-18T11:39:34;21.00;1.00
18160;DHT22;9205;52.032;4.314;2023-09-18T11:42:07;21.30;1.00
18160;DHT22;9205;52.032;4.314;2023-09-18T11:44:36;21.30;1.00
18160;DHT22;9205;52.032;4.314;2023-09-18T11:47:09;21.30;1.00
18160;DHT22;9205;52.032;4.314;2023-09-18T11:49:47;21.30;1.00
18160;DHT22;9205;52.032;4.314;2023-09-18T11:52:20;21.30;1.00
18160;DHT22;9205;52.032;4.314;2023-09-18T11:54:49;21.30;1.00
18160;DHT22;9205;52.032;4.314;2023-09-18T11:57:17;21.40;1.00
18160;DHT22;9205;52.032;4.314;2023-09-18T11:59:45;21.50;1.00
18160;DHT22;9205;52.032;4.314;2023-09-18T12:02:13;21.40;1.00
18160;DHT22;9205;52.032;4.314;2023-09-18T12:04:46;21.40;1.00
18160;DHT22;9205;52.032;4.314;2023-09-18T12:07:14;21.40;1.00
18160;DHT22;9205;52.032;4.314;2023-09-18T12:09:41;21.40;1.00
18160;DHT22;9205;52.032;4.314;2023-09-18T12:12:10;21.30;1.00
18160;DHT22;9205;52.032;4.314;2023-09-18T12:14:40;21.40;1.00
18160;DHT22;9205;52.032;4.314;2023-09-18T12:17:08;21.50;1.00
18160;DHT22;9205;52.032;4.314;2023-09-18T12:19:35;21.70;1.00
18160;DHT22;9205;52.032;4.314;2023-09-18T12:22:03;21.90;1.00
18160;DHT22;9205;52.032;4.314;2023-09-18T12:24:30;21.80;1.00
18160;DHT22;9205;52.032;4.314;2023-09-18T12:26:58;21.70;1.00
18160;DHT22;9205;52.032;4.314;2023-09-18T12:29:27;21.70;1.00
18160;DHT22;9205;52.032;4.314;2023-09-18T12:31:55;21.60;1.00
18160;DHT22;9205;52.032;4.314;2023-09-18T12:34:22;21.50;1.00
18160;DHT22;9205;52.032;4.314;2023-09-18T12:36:50;21.80;1.00
18160;DHT22;9205;52.032;4.314;2023-09-18T12:39:18;21.90;1.00
18160;DHT22;9205;52.032;4.314;2023-09-18T12:41:47;21.80;1.00
18160;DHT22;9205;52.032;4.314;2023-09-18T12:48:18;21.80;1.00
18160;DHT22;9205;52.032;4.314;2023-09-18T12:50:45;21.90;1.00
18160;DHT22;9205;52.032;4.314;2023-09-18T12:53:13;22.00;1.00
18160;DHT22;9205;52.032;4.314;2023-09-18T12:55:43;22.20;1.00
18160;DHT22;9205;52.032;4.314;2023-09-18T12:58:10;22.40;1.00
18160;DHT22;9205;52.032;4.314;2023-09-18T13:00:45;22.30;1.00
18160;DHT22;9205;52.032;4.314;2023-09-18T13:03:15;22.50;1.00
18160;DHT22;9205;52.032;4.314;2023-09-18T13:05:44;22.50;99.90
18160;DHT22;9205;52.032;4.314;2023-09-18T13:08:12;22.50;99.90
18160;DHT22;9205;52.032;4.314;2023-09-18T13:10:46;22.60;99.90
18160;DHT22;9205;52.032;4.314;2023-09-18T13:13:18;22.50;99.90
18160;DHT22;9205;52.032;4.314;2023-09-18T13:15:47;22.40;99.90
18160;DHT22;9205;52.032;4.314;2023-09-18T13:18:16;22.30;99.90
18160;DHT22;9205;52.032;4.314;2023-09-18T13:20:46;22.20;99.90
18160;DHT22;9205;52.032;4.314;2023-09-18T13:23:13;22.10;99.90
18160;DHT22;9205;52.032;4.314;2023-09-18T13:25:41;22.00;99.90
18160;DHT22;9205;52.032;4.314;2023-09-18T13:28:11;21.90;99.90
18160;DHT22;9205;52.032;4.314;2023-09-18T13:30:40;21.90;99.90
18160;DHT22;9205;52.032;4.314;2023-09-18T13:33:10;21.80;99.90
18160;DHT22;9205;52.032;4.314;2023-09-18T13:35:39;21.70;99.90
18160;DHT22;9205;52.032;4.314;2023-09-18T13:38:10;21.60;1.00
18160;DHT22;9205;52.032;4.314;2023-09-18T13:40:39;21.60;1.00
18160;DHT22;9205;52.032;4.314;2023-09-18T13:43:07;21.50;1.00
18160;DHT22;9205;52.032;4.314;2023-09-18T13:45:36;21.50;1.00
18160;DHT22;9205;52.032;4.314;2023-09-18T13:48:04;21.40;1.00
18160;DHT22;9205;52.032;4.314;2023-09-18T13:50:31;21.40;1.00
18160;DHT22;9205;52.032;4.314;2023-09-18T13:52:59;21.30;1.00
18160;DHT22;9205;52.032;4.314;2023-09-18T13:55:28;21.20;1.00
18160;DHT22;9205;52.032;4.314;2023-09-18T13:57:55;21.10;1.00
18160;DHT22;9205;52.032;4.314;2023-09-18T14:00:22;21.10;1.00
18160;DHT22;9205;52.032;4.314;2023-09-18T14:02:51;21.00;1.00
18160;DHT22;9205;52.032;4.314;2023-09-18T14:05:18;20.70;1.00
18160;DHT22;9205;52.032;4.314;2023-09-18T14:07:46;20.40;1.00
18160;DHT22;9205;52.032;4.314;2023-09-18T14:10:14;20.10;12.00
18160;DHT22;9205;52.032;4.314;2023-09-18T14:12:45;19.40;99.90
18160;DHT22;9205;52.032;4.314;2023-09-18T14:15:12;18.70;99.90
18160;DHT22;9205;52.032;4.314;2023-09-18T14:17:39;18.40;99.90
18160;DHT22;9205;52.032;4.314;2023-09-18T14:20:07;18.20;99.90
18160;DHT22;9205;52.032;4.314;2023-09-18T14:22:36;18.00;99.90
18160;DHT22;9205;52.032;4.314;2023-09-18T14:25:04;18.30;99.90
18160;DHT22;9205;52.032;4.314;2023-09-18T14:27:32;18.40;99.90
18160;DHT22;9205;52.032;4.314;2023-09-18T14:30:02;18.10;99.90
18160;DHT22;9205;52.032;4.314;2023-09-18T14:32:32;18.10;99.90
18160;DHT22;9205;52.032;4.314;2023-09-18T14:34:59;17.90;99.90
18160;DHT22;9205;52.032;4.314;2023-09-18T14:37:28;18.20;99.90
18160;DHT22;9205;52.032;4.314;2023-09-18T14:39:55;18.20;99.90
18160;DHT22;9205;52.032;4.314;2023-09-18T14:42:22;18.30;99.90
18160;DHT22;9205;52.032;4.314;2023-09-18T14:44:50;18.20;99.90
18160;DHT22;9205;52.032;4.314;2023-09-18T14:47:18;18.40;99.90
18160;DHT22;9205;52.032;4.314;2023-09-18T14:49:45;18.30;99.90
18160;DHT22;9205;52.032;4.314;2023-09-18T14:52:14;18.30;99.90
18160;DHT22;9205;52.032;4.314;2023-09-18T14:54:43;18.20;99.90
18160;DHT22;9205;52.032;4.314;2023-09-18T14:57:28;18.40;99.90
18160;DHT22;9205;52.032;4.314;2023-09-18T14:59:56;18.40;99.90
18160;DHT22;9205;52.032;4.314;2023-09-18T15:02:24;18.40;99.90
18160;DHT22;9205;52.032;4.314;2023-09-18T15:04:55;18.60;99.90
18160;DHT22;9205;52.032;4.314;2023-09-18T15:07:22;18.90;99.90
18160;DHT22;9205;52.032;4.314;2023-09-18T15:09:49;18.90;99.90
18160;DHT22;9205;52.032;4.314;2023-09-18T15:12:17;19.00;99.90
18160;DHT22;9205;52.032;4.314;2023-09-18T15:14:44;19.00;99.90
18160;DHT22;9205;52.032;4.314;2023-09-18T15:17:11;19.00;99.90
18160;DHT22;9205;52.032;4.314;2023-09-18T15:19:40;19.10;99.90
18160;DHT22;9205;52.032;4.314;2023-09-18T15:22:08;18.90;99.90
18160;DHT22;9205;52.032;4.314;2023-09-18T15:24:36;19.00;99.90
18160;DHT22;9205;52.032;4.314;2023-09-18T15:27:03;18.80;99.90
18160;DHT22;9205;52.032;4.314;2023-09-18T15:29:30;18.80;99.90
18160;DHT22;9205;52.032;4.314;2023-09-18T15:31:57;18.90;99.90
18160;DHT22;9205;52.032;4.314;2023-09-18T15:34:25;19.00;99.90
18160;DHT22;9205;52.032;4.314;2023-09-18T15:36:55;18.70;99.90
18160;DHT22;9205;52.032;4.314;2023-09-18T15:39:22;18.80;99.90
18160;DHT22;9205;52.032;4.314;2023-09-18T15:41:50;18.90;99.90
18160;DHT22;9205;52.032;4.314;2023-09-18T15:44:17;18.80;99.90
18160;DHT22;9205;52.032;4.314;2023-09-18T15:46:45;18.90;99.90
18160;DHT22;9205;52.032;4.314;2023-09-18T15:49:12;19.00;99.90
18160;DHT22;9205;52.032;4.314;2023-09-18T15:51:39;18.80;99.90
18160;DHT22;9205;52.032;4.314;2023-09-18T15:54:08;18.80;99.90
18160;DHT22;9205;52.032;4.314;2023-09-18T15:56:35;18.60;99.90
18160;DHT22;9205;52.032;4.314;2023-09-18T15:59:03;18.60;99.90
18160;DHT22;9205;52.032;4.314;2023-09-18T16:01:31;18.50;99.90
18160;DHT22;9205;52.032;4.314;2023-09-18T16:03:58;18.70;99.90
18160;DHT22;9205;52.032;4.314;2023-09-18T16:06:26;18.50;99.90